Time;durP1;ratioP1;P1;durP2;ratioP2;P2;SDS_P1;SDS_P2;PMS_P1;PMS_P2;Temp;Humidity;BMP_temperature;BMP_pressure;BME280_temperature;BME280_humidity;BME280_pressure;Samples;Min_cycle;Max_cycle;Signal;HPM_P1;HPM_P2
2021/06/29 00:00:09;;;;;;;4.43;1.60;;;18.40;99.90;;;17.66;83.41;97370.16;5043198;28;20052;-66
2021/06/29 00:03:02;;;;;;;3.65;1.55;;;18.40;99.90;;;17.88;82.26;97362.38;5038170;28;20048;-66
2021/06/29 00:05:49;;;;;;;4.28;1.58;;;18.30;99.90;;;17.71;83.17;97354.88;5039659;28;20421;-66
2021/06/29 00:08:37;;;;;;;3.35;1.92;;;18.40;99.90;;;17.36;85.31;97342.59;5043580;28;20126;-66
2021/06/29 00:11:42;;;;;;;5.47;2.00;;;18.40;99.90;;;17.43;85.15;97335.94;5048749;28;20048;-66
2021/06/29 00:14:30;;;;;;;3.85;1.98;;;18.30;99.90;;;17.45;84.94;97335.84;5049323;28;20130;-66
2021/06/29 00:17:17;;;;;;;7.22;1.80;;;18.10;99.90;;;17.25;86.12;97332.06;5050184;28;20083;-65
2021/06/29 00:20:06;;;;;;;6.93;2.47;;;18.10;99.90;;;17.12;86.80;97332.13;5037486;28;20401;-66
2021/06/29 00:22:53;;;;;;;4.80;1.60;;;18.10;99.90;;;17.10;86.83;97319.09;5041908;28;20040;-66
2021/06/29 00:25:41;;;;;;;2.63;1.88;;;18.00;99.90;;;17.16;86.84;97322.25;5046188;28;20068;-66
2021/06/29 00:28:29;;;;;;;2.78;1.52;;;17.90;99.90;;;17.24;86.20;97344.34;5048313;28;20044;-66
2021/06/29 00:31:17;;;;;;;4.65;1.90;;;18.00;99.90;;;16.96;87.95;97363.84;5049615;28;20040;-65
2021/06/29 00:34:04;;;;;;;5.32;1.85;;;18.00;99.90;;;17.03;87.68;97359.00;5043058;28;20048;-66
2021/06/29 00:36:52;;;;;;;5.78;1.92;;;17.80;99.90;;;16.97;88.05;97359.44;5044265;28;20052;-66
2021/06/29 00:39:39;;;;;;;4.15;1.63;;;17.90;99.90;;;16.92;88.01;97368.50;5015198;28;20052;-66
2021/06/29 00:42:27;;;;;;;5.43;2.10;;;17.80;99.90;;;17.03;87.53;97361.63;5041693;28;20041;-65
2021/06/29 00:45:14;;;;;;;3.08;2.00;;;17.80;99.90;;;16.86;87.98;97344.50;5030775;28;20485;-66
2021/06/29 00:48:02;;;;;;;5.20;2.15;;;17.70;99.90;;;16.87;87.77;97357.50;5019749;28;21745;-66
2021/06/29 00:50:50;;;;;;;5.65;2.13;;;17.70;99.90;;;17.02;86.79;97347.69;5028771;28;20092;-65
2021/06/29 00:53:38;;;;;;;3.25;1.70;;;17.70;99.90;;;16.83;87.91;97361.28;5030046;28;20103;-66
2021/06/29 00:56:25;;;;;;;4.80;2.05;;;17.70;99.90;;;16.81;88.22;97343.97;5013731;28;20072;-66
2021/06/29 00:59:12;;;;;;;4.93;2.08;;;17.70;99.90;;;16.91;87.81;97326.66;5030258;28;20583;-66
2021/06/29 01:02:00;;;;;;;6.50;1.80;;;17.70;99.90;;;16.92;87.61;97317.84;5027502;28;20175;-66
2021/06/29 01:04:48;;;;;;;2.70;1.58;;;17.70;99.90;;;17.02;86.89;97308.38;5027613;28;20176;-66
2021/06/29 01:07:36;;;;;;;6.10;2.05;;;17.70;99.90;;;16.77;88.02;97303.19;5015864;28;20033;-66
2021/06/29 01:10:23;;;;;;;6.38;2.00;;;17.70;99.90;;;16.76;88.47;97304.13;5029856;28;20445;-66
2021/06/29 01:13:10;;;;;;;6.85;2.63;;;17.60;99.90;;;16.73;88.74;97298.16;5027710;28;20373;-65
2021/06/29 01:15:59;;;;;;;4.40;2.00;;;17.50;99.90;;;16.73;88.98;97281.59;5030301;28;20073;-65
2021/06/29 01:18:47;;;;;;;6.28;2.42;;;17.50;99.90;;;16.62;89.46;97281.53;5028319;28;20533;-67
2021/06/29 01:21:41;;;;;;;3.22;2.17;;;17.50;99.90;;;16.59;90.00;97285.22;5026480;28;20468;-67
2021/06/29 01:24:31;;;;;;;4.53;1.77;;;17.50;99.90;;;16.62;89.88;97290.22;5030507;28;20065;-65
2021/06/29 01:33:00;;;;;;;5.15;2.30;;;17.50;99.90;;;16.58;90.11;97285.31;5028726;28;20045;-67
2021/06/29 01:35:47;;;;;;;2.70;1.85;;;17.50;99.90;;;16.72;89.25;97285.19;5019571;28;20111;-67
2021/06/29 01:38:34;;;;;;;3.35;1.60;;;17.40;99.90;;;16.76;88.89;97272.69;5042912;28;20038;-67
2021/06/29 01:41:24;;;;;;;6.70;2.33;;;17.40;99.90;;;16.76;88.86;97273.50;5049639;28;20051;-67
2021/06/29 01:44:16;;;;;;;3.95;1.88;;;17.40;99.90;;;16.71;89.09;97276.47;5034083;28;20037;-67
2021/06/29 01:47:10;;;;;;;4.22;2.47;;;17.40;99.90;;;16.57;90.07;97281.88;5027101;28;20037;-67
2021/06/29 01:50:06;;;;;;;4.45;2.10;;;17.30;99.90;;;16.62;89.85;97292.03;5028165;28;20072;-67
2021/06/29 01:52:57;;;;;;;7.40;2.90;;;17.30;99.90;;;16.46;90.94;97295.72;5014373;28;20179;-67
2021/06/29 01:55:46;;;;;;;5.18;2.65;;;17.30;99.90;;;16.47;90.93;97297.41;5029491;28;20073;-67
2021/06/29 01:58:34;;;;;;;7.57;2.53;;;17.30;99.90;;;16.53;90.75;97304.00;5027627;28;20071;-67
2021/06/29 02:01:23;;;;;;;12.55;2.53;;;17.30;99.90;;;16.45;91.30;97301.91;5025770;28;20041;-67
2021/06/29 02:04:11;;;;;;;3.83;2.13;;;17.30;99.90;;;16.50;90.74;97275.41;5029664;28;20049;-67
2021/06/29 02:06:59;;;;;;;6.38;2.28;;;17.30;99.90;;;16.62;90.53;97282.38;5027926;28;20057;-67
2021/06/29 02:09:46;;;;;;;4.72;2.60;;;17.30;99.90;;;16.44;91.05;97291.53;5027816;28;20057;-67
2021/06/29 02:12:33;;;;;;;5.63;2.25;;;17.30;99.90;;;16.46;91.27;97293.09;5028223;28;20037;-67
2021/06/29 02:15:21;;;;;;;6.13;2.33;;;17.30;99.90;;;16.65;89.90;97287.41;5028153;28;20171;-67
2021/06/29 02:18:08;;;;;;;5.43;2.42;;;17.30;99.90;;;16.57;90.54;97296.75;5025760;28;20045;-67
2021/06/29 02:20:56;;;;;;;4.40;2.20;;;17.30;99.90;;;16.53;91.11;97296.13;5029043;28;20048;-67
2021/06/29 02:23:43;;;;;;;3.17;1.90;;;17.20;99.90;;;16.66;90.16;97303.97;5030770;28;20056;-67
2021/06/29 02:26:31;;;;;;;7.32;2.30;;;17.20;99.90;;;16.59;90.36;97292.25;5032124;28;20053;-67
2021/06/29 02:29:18;;;;;;;6.10;2.17;;;17.20;99.90;;;16.72;89.39;97301.75;5032533;28;20057;-67
2021/06/29 02:32:06;;;;;;;4.65;1.95;;;17.30;99.90;;;16.64;89.99;97295.38;5031378;28;20038;-67
2021/06/29 02:34:53;;;;;;;3.17;1.90;;;17.30;99.90;;;16.65;89.78;97302.28;5029565;28;20575;-67
2021/06/29 02:37:41;;;;;;;3.55;2.22;;;17.30;99.90;;;16.68;89.60;97305.53;5027281;28;20057;-67
2021/06/29 02:40:29;;;;;;;4.75;2.17;;;17.30;99.90;;;16.83;88.44;97302.78;5038078;28;20045;-67
2021/06/29 02:43:16;;;;;;;6.40;2.53;;;17.30;99.90;;;16.68;89.68;97299.44;5035925;28;20047;-67
2021/06/29 02:46:04;;;;;;;9.90;2.55;;;17.40;99.90;;;16.57;90.39;97292.34;5018647;28;20410;-67
2021/06/29 02:48:55;;;;;;;4.70;1.95;;;17.40;99.90;;;16.79;89.25;97290.81;5033443;28;20419;-67
2021/06/29 02:51:43;;;;;;;4.70;2.00;;;17.40;99.90;;;16.82;88.51;97290.63;5025533;28;20582;-67
2021/06/29 02:54:30;;;;;;;5.55;1.77;;;17.50;99.90;;;16.58;90.18;97294.03;5032381;28;20057;-67
2021/06/29 02:57:17;;;;;;;3.80;2.40;;;17.40;99.90;;;16.39;91.50;97296.28;5028742;28;20060;-67
2021/06/29 03:00:13;;;;;;;5.78;2.45;;;17.40;99.90;;;16.58;90.44;97290.56;5026387;28;20131;-67
2021/06/29 03:03:00;;;;;;;6.07;2.78;;;17.40;99.90;;;16.34;91.75;97293.97;5027483;28;20057;-67
2021/06/29 03:05:47;;;;;;;5.55;2.50;;;17.30;99.90;;;16.32;92.01;97295.88;5031765;28;20044;-67
2021/06/29 03:08:35;;;;;;;6.85;2.65;;;17.30;99.90;;;16.33;91.97;97299.31;5031569;28;20111;-67
2021/06/29 03:11:23;;;;;;;6.65;2.95;;;17.30;99.90;;;16.29;92.45;97293.47;5032517;28;20042;-67
2021/06/29 03:14:10;;;;;;;6.88;2.33;;;17.40;99.90;;;16.31;92.24;97297.66;5028389;28;20391;-67
2021/06/29 03:16:58;;;;;;;5.72;2.67;;;17.30;99.90;;;16.41;91.71;97291.78;5031613;28;20037;-67
2021/06/29 03:19:45;;;;;;;5.50;2.05;;;17.30;99.90;;;16.61;90.47;97285.13;5030282;28;20046;-68
2021/06/29 03:22:33;;;;;;;3.95;1.92;;;17.30;99.90;;;16.81;88.65;97281.94;5032580;28;20096;-67
2021/06/29 03:25:20;;;;;;;3.50;1.90;;;17.40;99.90;;;16.85;88.23;97278.13;5031641;28;20044;-67
2021/06/29 03:28:08;;;;;;;3.17;1.70;;;17.50;99.90;;;16.90;87.42;97277.78;5028989;28;20564;-67
2021/06/29 03:30:56;;;;;;;3.45;1.65;;;17.50;99.90;;;16.88;87.43;97279.69;5032840;28;20038;-67
2021/06/29 03:33:44;;;;;;;5.15;2.22;;;17.60;99.90;;;16.73;88.88;97278.97;5031454;28;20490;-66
2021/06/29 03:36:31;;;;;;;5.18;2.60;;;17.60;99.90;;;16.81;88.35;97271.44;5028455;28;20139;-66
2021/06/29 03:39:18;;;;;;;5.82;2.25;;;17.60;99.90;;;16.77;88.46;97269.97;5031076;28;20037;-66
2021/06/29 03:42:10;;;;;;;3.13;1.70;;;17.50;99.90;;;16.82;87.76;97267.03;5032161;28;20041;-67
2021/06/29 03:44:58;;;;;;;5.07;2.55;;;17.50;99.90;;;16.75;88.21;97266.59;5024394;28;20044;-67
2021/06/29 03:47:45;;;;;;;7.05;2.90;;;17.50;99.90;;;16.65;88.96;97261.19;5029417;28;20141;-67
2021/06/29 03:50:32;;;;;;;4.72;2.42;;;17.40;99.90;;;16.60;89.16;97268.53;5027140;28;20505;-66
2021/06/29 03:53:19;;;;;;;3.42;2.10;;;17.40;99.90;;;16.76;88.17;97263.03;5032123;28;20097;-66
2021/06/29 03:59:13;;;;;;;4.60;1.92;;;17.50;99.90;;;16.89;87.26;97284.81;5029846;28;20065;-66
2021/06/29 04:02:01;;;;;;;2.45;1.90;;;17.50;99.90;;;16.95;86.90;97278.31;5028907;28;20060;-67
2021/06/29 04:04:48;;;;;;;5.53;2.00;;;17.70;99.90;;;17.08;85.94;97283.47;5030450;28;20038;-67
2021/06/29 04:07:36;;;;;;;4.55;1.90;;;17.70;99.90;;;16.98;86.58;97288.56;5029786;28;20123;-67
2021/06/29 04:10:23;;;;;;;9.25;1.77;;;17.80;99.90;;;17.06;86.27;97293.22;5026460;28;20095;-67
2021/06/29 04:13:10;;;;;;;4.55;2.08;;;17.80;99.90;;;17.02;86.95;97295.25;5026968;28;20069;-67
2021/06/29 04:15:58;;;;;;;7.47;2.08;;;17.90;99.90;;;17.07;86.79;97287.88;5030016;28;20076;-67
2021/06/29 04:18:45;;;;;;;5.40;2.45;;;17.80;99.90;;;16.70;89.50;97289.69;5029551;28;20482;-67
2021/06/29 04:21:33;;;;;;;5.38;2.58;;;17.80;99.90;;;16.43;91.31;97290.72;5030297;28;20057;-66
2021/06/29 04:24:20;;;;;;;6.10;2.53;;;17.80;99.90;;;16.61;90.53;97280.72;5031098;28;20074;-67
2021/06/29 04:27:08;;;;;;;3.35;1.90;;;17.70;99.90;;;17.01;88.29;97267.34;5029861;28;20062;-67
2021/06/29 04:29:56;;;;;;;7.60;2.28;;;17.70;99.90;;;17.09;87.44;97262.38;5029315;28;20390;-68
2021/06/29 04:32:43;;;;;;;4.53;1.65;;;17.80;99.90;;;17.22;86.96;97257.06;5024877;28;20128;-66
2021/06/29 04:35:31;;;;;;;4.10;1.63;;;17.90;99.90;;;17.42;85.87;97260.81;5031190;28;20076;-67
2021/06/29 04:38:18;;;;;;;3.28;1.73;;;18.00;99.90;;;17.13;87.30;97263.84;5024241;28;20053;-66
2021/06/29 04:41:05;;;;;;;4.45;2.15;;;18.00;99.90;;;16.96;88.46;97260.78;5031114;28;20129;-66
2021/06/29 04:43:53;;;;;;;5.38;2.47;;;17.90;99.90;;;16.84;89.05;97273.84;5030599;28;20135;-66
2021/06/29 04:46:40;;;;;;;5.15;2.30;;;17.90;99.90;;;16.78;89.80;97281.28;5030969;28;20138;-66
2021/06/29 04:49:29;;;;;;;2.85;2.17;;;17.90;99.90;;;16.76;89.88;97278.75;5032185;28;20073;-65
2021/06/29 04:52:16;;;;;;;7.57;2.55;;;17.90;99.90;;;16.95;88.89;97277.47;5031294;28;20038;-65
2021/06/29 04:55:04;;;;;;;6.70;2.30;;;17.90;99.90;;;17.02;88.54;97276.91;5030237;28;20052;-66
2021/06/29 04:57:51;;;;;;;5.65;2.17;;;18.00;99.90;;;17.09;88.56;97278.13;5029684;28;20456;-65
2021/06/29 05:00:44;;;;;;;6.00;2.75;;;18.00;99.90;;;16.84;89.48;97273.00;5030442;28;20045;-66
2021/06/29 05:03:31;;;;;;;4.15;2.70;;;17.90;99.90;;;16.93;89.03;97274.94;5028724;28;20359;-65
2021/06/29 05:06:19;;;;;;;6.53;2.53;;;17.80;99.90;;;16.98;89.22;97267.56;5025231;28;20123;-65
2021/06/29 05:09:07;;;;;;;5.00;2.40;;;17.80;99.90;;;17.20;88.15;97263.38;5029549;28;20498;-66
2021/06/29 05:11:54;;;;;;;5.13;2.67;;;17.90;99.90;;;16.98;89.23;97267.56;5031378;28;20042;-67
2021/06/29 05:14:42;;;;;;;5.32;2.40;;;17.90;99.90;;;17.10;88.54;97266.66;5028396;28;20048;-67
2021/06/29 05:17:29;;;;;;;7.93;2.63;;;17.90;99.90;;;17.20;87.81;97256.34;5031374;28;20108;-66
2021/06/29 05:20:16;;;;;;;3.40;1.88;;;18.00;99.90;;;17.55;86.67;97253.69;5029557;28;20398;-66
2021/06/29 05:23:04;;;;;;;5.10;2.30;;;18.10;99.90;;;17.58;86.00;97251.78;5030253;28;20220;-67
2021/06/29 05:25:51;;;;;;;5.30;2.03;;;18.30;99.90;;;17.67;85.49;97246.66;5023010;28;20088;-67
2021/06/29 05:28:39;;;;;;;5.95;2.40;;;18.30;99.90;;;17.25;87.08;97256.00;5028937;28;20046;-67
2021/06/29 05:31:27;;;;;;;12.20;2.40;;;18.20;99.90;;;17.52;86.65;97255.72;5030247;28;20045;-66
2021/06/29 05:34:15;;;;;;;8.88;3.03;;;18.20;99.90;;;17.08;88.32;97258.09;5029945;28;20416;-67
2021/06/29 05:37:02;;;;;;;4.28;2.35;;;18.20;99.90;;;17.25;87.75;97256.00;5028624;28;20131;-67
2021/06/29 05:39:49;;;;;;;6.68;2.60;;;18.10;99.90;;;17.38;87.42;97250.66;5017991;28;20049;-67
2021/06/29 05:42:36;;;;;;;6.57;2.92;;;18.10;99.90;;;17.48;87.04;97249.84;5029733;28;20524;-67
2021/06/29 05:45:24;;;;;;;8.05;2.65;;;18.10;99.90;;;17.49;86.97;97235.78;5023993;28;20409;-67
2021/06/29 05:48:14;;;;;;;5.35;2.80;;;18.20;99.90;;;17.30;87.77;97235.50;5028049;28;20131;-66
2021/06/29 05:51:01;;;;;;;7.93;2.85;;;18.30;99.90;;;17.40;87.27;97225.97;5029054;28;20065;-66
2021/06/29 05:53:49;;;;;;;4.40;2.33;;;18.30;99.90;;;17.41;87.29;97224.19;5029345;28;20482;-67
2021/06/29 05:56:36;;;;;;;7.28;3.42;;;18.30;99.90;;;17.19;88.23;97238.09;5028695;28;20037;-67
2021/06/29 05:59:23;;;;;;;4.32;2.60;;;18.20;99.90;;;17.20;88.18;97231.91;5028931;28;20041;-67
2021/06/29 06:02:11;;;;;;;8.52;3.50;;;18.20;99.90;;;16.90;89.43;97231.44;5027731;28;20095;-67
2021/06/29 06:04:58;;;;;;;7.38;3.15;;;18.20;99.90;;;17.20;88.51;97234.53;5028227;28;20162;-67
2021/06/29 06:07:46;;;;;;;9.30;3.17;;;18.20;99.90;;;17.14;88.27;97238.44;5020182;28;20061;-67
2021/06/29 06:10:33;;;;;;;5.45;3.58;;;18.30;99.90;;;17.08;88.78;97234.50;5028340;28;20084;-67
2021/06/29 06:13:21;;;;;;;6.47;3.50;;;18.40;99.90;;;17.34;87.76;97235.16;5027215;28;20042;-67
2021/06/29 06:16:08;;;;;;;7.53;3.45;;;18.40;99.90;;;17.55;85.86;97237.09;5028994;28;20147;-66
2021/06/29 06:18:56;;;;;;;5.82;3.38;;;18.30;99.90;;;17.40;87.36;97230.38;5022466;28;20434;-67
2021/06/29 06:21:43;;;;;;;7.38;2.95;;;18.50;99.90;;;17.40;87.30;97233.84;5034005;28;20517;-67
2021/06/29 06:24:30;;;;;;;5.75;2.88;;;18.50;99.90;;;17.58;85.51;97238.66;5029502;28;20038;-67
2021/06/29 06:27:18;;;;;;;5.68;2.95;;;18.50;99.90;;;17.80;85.45;97243.09;5015385;28;20049;-67
2021/06/29 06:30:07;;;;;;;6.07;2.97;;;18.60;99.90;;;17.84;84.76;97239.31;5027503;28;20037;-67
2021/06/29 06:32:54;;;;;;;5.90;2.78;;;18.70;99.90;;;17.88;84.00;97241.59;5029514;28;20536;-67
2021/06/29 06:35:41;;;;;;;7.03;3.25;;;18.60;99.90;;;17.71;85.51;97249.88;5011498;28;20176;-67
2021/06/29 06:38:29;;;;;;;6.30;3.13;;;18.70;99.90;;;17.78;84.91;97245.84;5026917;28;20033;-67
2021/06/29 06:41:16;;;;;;;5.78;2.60;;;18.90;99.90;;;18.08;83.45;97237.38;5026883;28;20069;-67
2021/06/29 06:44:04;;;;;;;6.22;2.50;;;19.10;99.90;;;18.65;81.06;97232.88;5027470;28;20453;-67
2021/06/29 06:46:51;;;;;;;4.45;2.45;;;19.50;99.90;;;19.11;80.84;97226.53;5026950;28;20034;-67
2021/06/29 06:49:39;;;;;;;5.88;2.20;;;19.90;99.90;;;19.37;78.67;97239.31;5026633;28;20037;-67
2021/06/29 06:52:27;;;;;;;2.95;1.58;;;20.30;99.90;;;19.83;77.33;97230.16;5028574;28;20116;-67
2021/06/29 06:55:18;;;;;;;2.78;1.42;;;20.90;99.90;;;20.44;75.11;97226.63;5026885;28;20072;-67
2021/06/29 06:58:05;;;;;;;4.03;1.27;;;21.30;99.90;;;19.59;71.74;97215.47;5029186;28;20045;-67
2021/06/29 07:00:53;;;;;;;2.83;1.10;;;21.10;99.90;;;19.42;72.81;97219.50;5028542;28;20146;-67
2021/06/29 07:03:41;;;;;;;3.05;1.10;;;20.70;99.90;;;18.99;72.09;97215.19;5025394;28;20128;-67
2021/06/29 07:06:28;;;;;;;2.90;1.27;;;20.60;99.90;;;19.48;73.02;97217.31;5025022;28;20034;-67
2021/06/29 07:09:15;;;;;;;3.15;1.23;;;20.50;99.90;;;19.39;72.65;97218.97;5028107;28;20445;-67
2021/06/29 07:12:08;;;;;;;3.90;1.70;;;20.40;99.90;;;19.11;73.90;97220.41;5032349;28;20489;-67
2021/06/29 07:14:56;;;;;;;3.92;1.35;;;20.30;99.90;;;18.66;76.56;97218.78;5031506;28;20050;-67
2021/06/29 07:17:43;;;;;;;4.22;1.45;;;20.20;99.90;;;19.00;75.74;97218.69;5031358;28;20049;-67
2021/06/29 07:20:30;;;;;;;4.47;1.40;;;20.20;99.90;;;19.07;75.00;97213.72;5030308;28;20037;-67
2021/06/29 07:23:18;;;;;;;4.72;1.77;;;20.20;99.90;;;19.04;74.53;97212.19;5026910;28;20041;-67
2021/06/29 07:26:06;;;;;;;3.15;1.33;;;20.20;99.90;;;19.77;74.10;97207.81;5030861;28;20052;-67
2021/06/29 07:28:53;;;;;;;6.03;1.23;;;20.50;99.90;;;20.35;72.97;97203.72;5031481;28;20042;-67
2021/06/29 07:31:41;;;;;;;3.78;1.30;;;21.10;99.90;;;20.05;70.90;97208.91;5028096;28;20072;-67
2021/06/29 07:34:28;;;;;;;4.13;1.40;;;21.40;99.90;;;19.68;71.01;97202.47;5029671;28;20334;-67
2021/06/29 07:37:16;;;;;;;4.78;1.33;;;21.40;99.90;;;20.54;69.64;97208.19;5031437;28;20417;-67
2021/06/29 07:40:04;;;;;;;2.13;0.88;;;21.50;99.90;;;20.79;68.03;97204.22;5030400;28;20057;-66
2021/06/29 07:42:55;;;;;;;1.95;1.00;;;21.90;99.90;;;20.41;68.04;97204.00;5030216;28;20057;-66
2021/06/29 07:45:42;;;;;;;4.00;1.05;;;22.20;99.90;;;20.53;68.27;97199.44;5032009;28;20544;-66
2021/06/29 07:48:30;;;;;;;2.45;0.80;;;22.00;99.90;;;20.61;65.38;97194.34;5028429;28;20037;-67
2021/06/29 07:51:17;;;;;;;2.45;0.90;;;22.00;99.90;;;21.00;65.72;97190.88;5031777;28;20410;-66
2021/06/29 07:54:05;;;;;;;4.95;0.90;;;22.10;99.90;;;21.14;67.13;97193.06;5034600;28;20042;-66
2021/06/29 07:56:52;;;;;;;1.45;0.70;;;22.10;99.90;;;21.34;63.40;97175.41;5024543;28;20179;-66
2021/06/29 07:59:39;;;;;;;2.92;0.60;;;22.50;99.90;;;21.35;60.69;97178.88;5030584;28;20045;-66
2021/06/29 08:02:26;;;;;;;2.80;0.50;;;22.70;99.90;;;21.60;60.25;97180.09;5032886;28;20041;-66
2021/06/29 08:05:15;;;;;;;2.35;0.50;;;22.70;99.90;;;21.83;57.27;97178.75;5029272;28;20386;-66
2021/06/29 08:08:05;;;;;;;0.95;0.40;;;22.80;99.90;;;21.90;59.07;97177.19;5030765;28;20444;-66
2021/06/29 08:10:53;;;;;;;2.50;0.50;;;23.00;99.90;;;22.20;56.19;97175.25;5030789;28;20112;-67
2021/06/29 08:13:40;;;;;;;1.38;0.40;;;23.20;99.90;;;21.75;57.14;97173.38;5025893;28;20490;-66
2021/06/29 08:16:29;;;;;;;0.70;0.40;;;22.90;99.90;;;21.92;56.83;97175.25;5029700;28;20482;-67
2021/06/29 08:19:17;;;;;;;1.13;0.30;;;23.00;99.90;;;22.25;55.41;97178.28;5031919;28;20060;-66
2021/06/29 08:22:05;;;;;;;1.90;0.45;;;23.10;99.90;;;22.16;56.47;97173.88;5029868;28;20045;-66
2021/06/29 08:24:52;;;;;;;1.20;0.50;;;23.20;99.90;;;22.68;56.08;97168.81;5027487;28;20049;-66
2021/06/29 08:27:40;;;;;;;0.93;0.40;;;23.40;99.90;;;23.07;54.26;97172.97;5029867;28;20037;-67
2021/06/29 08:30:27;;;;;;;1.02;0.50;;;23.80;99.90;;;22.56;53.08;97170.03;5030892;28;20041;-67
2021/06/29 08:33:15;;;;;;;0.75;0.40;;;24.20;99.90;;;23.25;54.43;97157.88;5029342;28;20091;-67
2021/06/29 08:36:03;;;;;;;0.98;0.50;;;24.30;99.90;;;23.52;54.03;97158.72;5031306;28;20132;-67
2021/06/29 08:38:50;;;;;;;2.95;0.57;;;24.60;99.90;;;24.17;53.32;97156.38;5030044;28;20050;-67
2021/06/29 08:41:45;;;;;;;1.58;0.50;;;25.00;99.90;;;25.28;50.53;97157.06;5027321;28;20056;-67
2021/06/29 08:44:32;;;;;;;2.10;0.50;;;25.60;99.90;;;25.27;49.56;97150.88;5027381;28;20819;-67
2021/06/29 08:47:20;;;;;;;1.00;0.50;;;25.80;99.90;;;25.64;48.53;97149.50;5026032;28;20068;-67
2021/06/29 08:50:14;;;;;;;1.05;0.32;;;26.00;99.90;;;25.76;49.00;97142.00;5027159;28;20053;-66
2021/06/29 08:53:05;;;;;;;3.67;0.30;;;26.50;99.90;;;24.71;46.56;97142.75;5026264;28;20049;-67
2021/06/29 08:55:58;;;;;;;0.98;0.45;;;26.70;99.90;;;25.41;48.23;97133.47;5029928;28;20196;-67
2021/06/29 08:58:45;;;;;;;1.35;0.50;;;26.50;99.90;;;25.93;46.33;97130.31;5031149;28;20137;-67
2021/06/29 09:01:33;;;;;;;1.38;0.40;;;26.80;99.90;;;26.08;45.34;97127.75;5026233;28;20046;-67
2021/06/29 09:04:50;;;;;;;3.15;0.40;;;26.80;99.90;;;26.41;44.20;97114.25;5024806;28;20534;-67
2021/06/29 09:07:37;;;;;;;2.13;0.40;;;26.80;99.90;;;24.94;45.53;97108.41;5048987;28;20151;-67
2021/06/29 09:10:25;;;;;;;1.77;0.35;;;26.90;99.90;;;26.82;45.23;97100.66;5046695;28;20041;-67
2021/06/29 09:13:21;;;;;;;3.35;0.40;;;26.90;99.90;;;27.75;41.91;97094.06;5048541;28;20370;-67
2021/06/29 09:16:10;;;;;;;0.88;0.30;;;27.50;99.90;;;28.69;39.21;97101.31;5049885;28;20124;-67
2021/06/29 09:18:57;;;;;;;1.58;0.40;;;28.00;99.90;;;28.51;38.96;97104.41;5030025;28;20048;-67
2021/06/29 09:21:44;;;;;;;2.75;0.47;;;28.00;99.90;;;28.06;39.30;97096.53;5046885;28;20037;-67
2021/06/29 09:24:33;;;;;;;2.05;0.50;;;27.80;99.90;;;26.72;41.18;97098.25;5046611;28;20056;-67
2021/06/29 09:27:44;;;;;;;1.13;0.40;;;27.90;99.90;;;27.97;38.17;97094.19;5048792;28;20032;-67
2021/06/29 09:30:32;;;;;;;;;;;27.60;99.90;;;29.16;37.18;97089.19;5045371;28;20660;-67
2021/06/29 09:33:21;;;;;;;0.95;0.40;;;28.00;99.90;;;28.81;37.39;97093.59;5045399;28;19921;-67
2021/06/29 09:36:15;;;;;;;3.58;0.45;;;28.30;99.80;;;29.83;35.99;97068.19;5041943;28;20119;-67
2021/06/29 09:39:17;;;;;;;1.60;0.30;;;28.40;99.80;;;28.80;37.80;97076.75;5039230;28;20091;-67
2021/06/29 09:42:06;;;;;;;2.58;0.40;;;28.60;99.70;;;29.67;39.05;97063.97;5046970;28;20045;-67
2021/06/29 09:44:53;;;;;;;0.93;0.32;;;28.90;99.90;;;29.58;36.30;97066.84;5047922;28;20508;-67
2021/06/29 09:47:46;;;;;;;1.25;0.30;;;29.40;98.60;;;30.96;32.96;97066.59;5047771;28;20475;-67
2021/06/29 09:50:52;;;;;;;1.55;0.60;;;29.50;97.90;;;28.51;36.78;97069.72;5045964;28;20393;-67
2021/06/29 09:53:41;;;;;;;3.80;0.50;;;28.60;98.00;;;29.56;34.71;97073.38;5040079;28;20029;-67
2021/06/29 09:56:37;;;;;;;0.60;0.40;;;29.00;97.70;;;30.22;34.37;97083.53;5035427;28;20441;-67
2021/06/29 09:59:25;;;;;;;3.63;0.40;;;29.50;97.40;;;29.70;33.13;97075.16;5023224;28;20170;-67
2021/06/29 10:02:13;;;;;;;1.58;0.40;;;29.90;96.10;;;30.72;34.21;97078.72;5029815;28;20038;-67
2021/06/29 10:05:20;;;;;;;1.15;0.40;;;30.00;97.50;;;30.46;33.08;97081.38;5025710;28;20067;-67
2021/06/29 10:08:08;;;;;;;2.20;0.40;;;30.00;96.50;;;30.11;34.48;97089.50;5039561;28;20041;-67
2021/06/29 10:11:24;;;;;;;0.98;0.50;;;30.00;96.80;;;27.28;37.04;97096.09;5046975;28;20060;-67
2021/06/29 10:14:16;;;;;;;1.23;0.50;;;29.50;95.70;;;27.12;38.59;97105.06;5048488;28;20067;-67
2021/06/29 10:17:09;;;;;;;1.75;0.50;;;28.40;97.00;;;27.44;39.21;97096.94;5046939;28;20229;-67
2021/06/29 10:20:12;;;;;;;0.77;0.43;;;27.80;98.00;;;26.27;39.91;97107.84;5043049;28;20049;-67
2021/06/29 10:23:00;;;;;;;1.20;0.50;;;27.50;97.60;;;24.25;43.84;97109.69;5048277;28;20150;-67
2021/06/29 10:25:47;;;;;;;1.40;0.60;;;26.70;97.80;;;24.59;43.94;97109.59;5031537;28;20048;-67
2021/06/29 10:28:36;;;;;;;1.88;0.50;;;26.10;98.70;;;24.07;44.77;97104.50;5031744;28;20041;-67
2021/06/29 10:31:40;;;;;;;1.33;0.40;;;25.80;99.10;;;24.85;45.07;97101.44;5035773;28;20508;-66
2021/06/29 10:34:27;;;;;;;3.22;0.70;;;25.50;99.90;;;24.80;44.76;97107.25;5044833;28;20090;-67
2021/06/29 10:37:15;;;;;;;1.50;0.52;;;25.30;99.90;;;24.91;44.78;97099.97;5040569;28;20041;-67
2021/06/29 10:40:04;;;;;;;2.70;0.50;;;25.20;99.90;;;24.72;46.93;97098.47;5047137;28;20073;-67
2021/06/29 10:42:58;;;;;;;2.50;0.60;;;25.20;99.90;;;23.15;50.72;97091.00;5018927;28;20052;-67
2021/06/29 10:45:47;;;;;;;2.42;0.50;;;24.80;99.90;;;23.58;49.19;97078.59;5037196;28;20525;-67
2021/06/29 10:48:35;;;;;;;2.92;0.70;;;24.40;99.90;;;22.74;50.81;97088.03;5038355;28;20044;-67
2021/06/29 10:51:39;;;;;;;2.90;0.70;;;24.20;99.90;;;22.43;52.55;97099.00;5052536;28;20675;-67
2021/06/29 10:54:42;;;;;;;1.38;0.70;;;24.00;99.90;;;22.75;53.89;97084.38;5035546;28;20047;-67
2021/06/29 10:57:48;;;;;;;6.80;0.70;;;23.70;99.90;;;22.89;53.64;97075.88;5039810;28;20092;-67
2021/06/29 11:00:35;;;;;;;0.80;0.50;;;23.60;99.90;;;23.15;52.45;97081.22;5028015;28;20418;-67
2021/06/29 11:03:38;;;;;;;3.15;0.50;;;23.80;99.90;;;23.12;51.79;97078.88;5038223;28;20488;-67
2021/06/29 11:06:45;;;;;;;3.95;0.60;;;23.80;99.90;;;22.68;51.23;97084.16;5023333;28;20111;-67
2021/06/29 11:10:12;;;;;;;1.02;0.50;;;23.60;99.90;;;21.92;53.79;97081.94;5020674;28;20425;-67
2021/06/29 11:13:00;;;;;;;1.95;0.40;;;23.30;99.90;;;21.91;54.06;97073.16;5030632;28;20146;-67
2021/06/29 11:15:52;;;;;;;2.20;0.52;;;22.90;99.90;;;21.61;56.32;97069.03;5050725;28;20128;-67
2021/06/29 11:18:40;;;;;;;1.45;0.50;;;22.80;99.90;;;21.53;55.52;97071.59;5035627;28;20036;-67
2021/06/29 11:21:35;;;;;;;0.88;0.50;;;22.60;99.90;;;21.93;55.43;97073.84;5048430;28;20379;-67
2021/06/29 11:24:38;;;;;;;2.03;0.40;;;22.50;99.90;;;22.18;55.17;97071.47;5052230;28;20041;-67
2021/06/29 11:28:10;;;;;;;1.60;0.50;;;22.60;99.90;;;22.13;54.64;97073.72;5044608;28;20045;-67
2021/06/29 11:31:13;;;;;;;3.55;0.55;;;22.70;99.90;;;21.78;54.98;97071.84;5046489;28;20129;-67
2021/06/29 11:34:03;;;;;;;;;;;22.70;99.90;;;21.15;57.04;97064.63;5029576;28;20045;-67
2021/06/29 11:36:55;;;;;;;1.38;0.55;;;22.50;99.90;;;20.79;58.57;97061.78;5030287;28;19979;-67
2021/06/29 11:39:42;;;;;;;1.50;0.60;;;22.20;99.90;;;20.70;60.32;97078.47;5031950;28;20057;-67
2021/06/29 11:42:31;;;;;;;2.92;0.70;;;22.00;99.90;;;20.46;60.31;97083.16;5030749;28;20081;-68
2021/06/29 11:45:31;;;;;;;2.38;0.82;;;21.70;99.90;;;20.17;61.74;97084.97;5026533;28;20045;-67
2021/06/29 11:48:43;;;;;;;5.47;0.63;;;21.50;99.90;;;19.84;64.00;97072.03;5031348;28;20049;-67
2021/06/29 11:51:50;;;;;;;4.93;0.75;;;21.30;99.90;;;19.38;67.15;97086.50;5044624;28;20413;-67
2021/06/29 11:54:38;;;;;;;2.53;0.70;;;20.90;99.90;;;18.94;71.87;97088.50;5037787;28;20041;-67
2021/06/29 11:57:43;;;;;;;2.60;1.30;;;20.40;99.90;;;17.66;80.80;97084.06;5027705;28;20038;-66
2021/06/29 12:00:36;;;;;;;6.47;1.30;;;19.40;99.90;;;17.25;84.23;97104.69;5030223;28;20033;-67
2021/06/29 12:03:24;;;;;;;4.65;1.60;;;18.60;99.90;;;16.93;87.85;97121.09;5027100;28;20050;-67